sensor_id;sensor_type;location;lat;lon;timestamp;temperature;humidity
24772;DHT22;12870;52.274;9.754;2022-09-01T00:00:46;15.30;99.90
24772;DHT22;12870;52.274;9.754;2022-09-01T00:03:18;15.20;99.90
24772;DHT22;12870;52.274;9.754;2022-09-01T00:05:47;15.20;99.90
24772;DHT22;12870;52.274;9.754;2022-09-01T00:08:15;15.10;99.90
24772;DHT22;12870;52.274;9.754;2022-09-01T00:10:41;15.10;99.90
24772;DHT22;12870;52.274;9.754;2022-09-01T00:13:07;15.00;99.90
24772;DHT22;12870;52.274;9.754;2022-09-01T00:15:34;14.90;99.90
24772;DHT22;12870;52.274;9.754;2022-09-01T00:18:01;14.90;99.90
24772;DHT22;12870;52.274;9.754;2022-09-01T00:20:27;14.80;99.90
24772;DHT22;12870;52.274;9.754;2022-09-01T00:22:53;14.80;99.90
24772;DHT22;12870;52.274;9.754;2022-09-01T00:25:20;14.80;99.90
24772;DHT22;12870;52.274;9.754;2022-09-01T00:27:47;14.80;99.90
24772;DHT22;12870;52.274;9.754;2022-09-01T00:30:13;14.70;99.90
24772;DHT22;12870;52.274;9.754;2022-09-01T00:32:40;14.70;99.90
24772;DHT22;12870;52.274;9.754;2022-09-01T00:35:12;14.60;99.90
24772;DHT22;12870;52.274;9.754;2022-09-01T00:37:38;14.60;99.90
24772;DHT22;12870;52.274;9.754;2022-09-01T00:40:04;14.50;99.90
24772;DHT22;12870;52.274;9.754;2022-09-01T00:42:30;14.50;99.90
24772;DHT22;12870;52.274;9.754;2022-09-01T00:44:56;14.40;99.90
24772;DHT22;12870;52.274;9.754;2022-09-01T00:47:22;14.30;99.90
24772;DHT22;12870;52.274;9.754;2022-09-01T00:49:48;14.30;99.90
24772;DHT22;12870;52.274;9.754;2022-09-01T00:54:52;14.20;99.90
24772;DHT22;12870;52.274;9.754;2022-09-01T00:57:19;14.10;99.90
24772;DHT22;12870;52.274;9.754;2022-09-01T00:59:56;14.00;99.90
24772;DHT22;12870;52.274;9.754;2022-09-01T01:02:22;14.00;99.90
24772;DHT22;12870;52.274;9.754;2022-09-01T01:04:48;13.90;99.90
24772;DHT22;12870;52.274;9.754;2022-09-01T01:07:14;13.90;99.90
24772;DHT22;12870;52.274;9.754;2022-09-01T01:09:43;13.80;99.90
24772;DHT22;12870;52.274;9.754;2022-09-01T01:12:10;13.80;99.90
24772;DHT22;12870;52.274;9.754;2022-09-01T01:14:38;13.80;99.90
24772;DHT22;12870;52.274;9.754;2022-09-01T01:17:06;13.80;99.90
24772;DHT22;12870;52.274;9.754;2022-09-01T01:19:51;13.70;99.90
24772;DHT22;12870;52.274;9.754;2022-09-01T01:25:51;13.70;99.90
24772;DHT22;12870;52.274;9.754;2022-09-01T01:28:32;13.70;99.90
24772;DHT22;12870;52.274;9.754;2022-09-01T01:31:07;13.60;99.90
24772;DHT22;12870;52.274;9.754;2022-09-01T01:33:43;13.50;99.90
24772;DHT22;12870;52.274;9.754;2022-09-01T01:36:21;13.30;99.90
24772;DHT22;12870;52.274;9.754;2022-09-01T01:38:51;13.20;99.90
24772;DHT22;12870;52.274;9.754;2022-09-01T01:41:18;13.10;99.90
24772;DHT22;12870;52.274;9.754;2022-09-01T01:43:44;13.10;99.90
24772;DHT22;12870;52.274;9.754;2022-09-01T01:46:11;13.00;99.90
24772;DHT22;12870;52.274;9.754;2022-09-01T01:48:40;12.90;99.90
24772;DHT22;12870;52.274;9.754;2022-09-01T01:51:08;12.90;99.90
24772;DHT22;12870;52.274;9.754;2022-09-01T01:53:34;12.90;99.90
24772;DHT22;12870;52.274;9.754;2022-09-01T01:56:00;12.90;99.90
24772;DHT22;12870;52.274;9.754;2022-09-01T01:58:27;12.90;99.90
24772;DHT22;12870;52.274;9.754;2022-09-01T02:00:54;12.90;99.90
24772;DHT22;12870;52.274;9.754;2022-09-01T02:03:23;12.80;99.90
24772;DHT22;12870;52.274;9.754;2022-09-01T02:05:52;12.80;99.90
24772;DHT22;12870;52.274;9.754;2022-09-01T02:08:19;12.70;99.90
24772;DHT22;12870;52.274;9.754;2022-09-01T02:10:50;12.60;99.90
24772;DHT22;12870;52.274;9.754;2022-09-01T02:13:19;12.60;99.90
24772;DHT22;12870;52.274;9.754;2022-09-01T02:15:50;12.50;99.90
24772;DHT22;12870;52.274;9.754;2022-09-01T02:18:25;12.40;99.90
24772;DHT22;12870;52.274;9.754;2022-09-01T02:20:53;12.40;99.90
24772;DHT22;12870;52.274;9.754;2022-09-01T02:23:21;12.40;99.90
24772;DHT22;12870;52.274;9.754;2022-09-01T02:25:53;12.30;99.90
24772;DHT22;12870;52.274;9.754;2022-09-01T02:28:21;12.30;99.90
24772;DHT22;12870;52.274;9.754;2022-09-01T02:30:51;12.30;99.90
24772;DHT22;12870;52.274;9.754;2022-09-01T02:33:20;12.20;99.90
24772;DHT22;12870;52.274;9.754;2022-09-01T02:35:48;12.20;99.90
24772;DHT22;12870;52.274;9.754;2022-09-01T02:38:15;12.30;99.90
24772;DHT22;12870;52.274;9.754;2022-09-01T02:40:43;12.30;99.90
24772;DHT22;12870;52.274;9.754;2022-09-01T02:43:12;12.30;99.90
24772;DHT22;12870;52.274;9.754;2022-09-01T02:45:38;12.30;99.90
24772;DHT22;12870;52.274;9.754;2022-09-01T02:48:09;12.20;99.90
24772;DHT22;12870;52.274;9.754;2022-09-01T02:50:36;12.20;99.90
24772;DHT22;12870;52.274;9.754;2022-09-01T02:53:02;12.20;99.90
24772;DHT22;12870;52.274;9.754;2022-09-01T02:55:31;12.10;99.90
24772;DHT22;12870;52.274;9.754;2022-09-01T02:58:00;12.10;99.90
24772;DHT22;12870;52.274;9.754;2022-09-01T03:00:29;12.10;99.90
24772;DHT22;12870;52.274;9.754;2022-09-01T03:02:58;12.10;99.90
24772;DHT22;12870;52.274;9.754;2022-09-01T03:05:26;12.00;99.90
24772;DHT22;12870;52.274;9.754;2022-09-01T03:08:00;12.00;99.90
24772;DHT22;12870;52.274;9.754;2022-09-01T03:10:30;11.90;99.90
24772;DHT22;12870;52.274;9.754;2022-09-01T03:13:05;11.90;99.90
24772;DHT22;12870;52.274;9.754;2022-09-01T03:15:32;11.90;99.90
24772;DHT22;12870;52.274;9.754;2022-09-01T03:18:02;11.80;99.90
24772;DHT22;12870;52.274;9.754;2022-09-01T03:20:29;11.80;99.90
24772;DHT22;12870;52.274;9.754;2022-09-01T03:22:55;11.70;99.90
24772;DHT22;12870;52.274;9.754;2022-09-01T03:25:23;11.70;99.90
24772;DHT22;12870;52.274;9.754;2022-09-01T03:27:50;11.70;99.90
24772;DHT22;12870;52.274;9.754;2022-09-01T03:30:17;11.70;99.90
24772;DHT22;12870;52.274;9.754;2022-09-01T03:32:43;11.70;99.90
24772;DHT22;12870;52.274;9.754;2022-09-01T03:35:10;11.70;99.90
24772;DHT22;12870;52.274;9.754;2022-09-01T03:37:36;11.70;99.90
24772;DHT22;12870;52.274;9.754;2022-09-01T03:40:05;11.60;99.90
24772;DHT22;12870;52.274;9.754;2022-09-01T03:42:34;11.60;99.90
24772;DHT22;12870;52.274;9.754;2022-09-01T03:45:00;11.60;99.90
24772;DHT22;12870;52.274;9.754;2022-09-01T03:47:37;11.60;99.90
24772;DHT22;12870;52.274;9.754;2022-09-01T03:50:06;11.50;99.90
24772;DHT22;12870;52.274;9.754;2022-09-01T03:52:35;11.50;99.90
24772;DHT22;12870;52.274;9.754;2022-09-01T03:55:01;11.50;99.90
24772;DHT22;12870;52.274;9.754;2022-09-01T03:57:27;11.50;99.90
24772;DHT22;12870;52.274;9.754;2022-09-01T03:59:53;11.50;99.90
24772;DHT22;12870;52.274;9.754;2022-09-01T04:02:20;11.50;99.90
24772;DHT22;12870;52.274;9.754;2022-09-01T04:04:47;11.40;99.90
24772;DHT22;12870;52.274;9.754;2022-09-01T04:07:13;11.40;99.90
24772;DHT22;12870;52.274;9.754;2022-09-01T04:09:39;11.30;99.90
24772;DHT22;12870;52.274;9.754;2022-09-01T04:12:06;11.30;99.90
24772;DHT22;12870;52.274;9.754;2022-09-01T04:14:38;11.30;99.90
24772;DHT22;12870;52.274;9.754;2022-09-01T04:17:03;11.30;99.90
24772;DHT22;12870;52.274;9.754;2022-09-01T04:19:47;11.30;99.90
24772;DHT22;12870;52.274;9.754;2022-09-01T04:22:13;11.30;99.90
24772;DHT22;12870;52.274;9.754;2022-09-01T04:24:40;11.20;99.90
24772;DHT22;12870;52.274;9.754;2022-09-01T04:27:09;11.20;99.90
24772;DHT22;12870;52.274;9.754;2022-09-01T04:29:36;11.20;99.90
24772;DHT22;12870;52.274;9.754;2022-09-01T04:32:06;11.10;99.90
24772;DHT22;12870;52.274;9.754;2022-09-01T04:34:34;11.10;99.90
24772;DHT22;12870;52.274;9.754;2022-09-01T04:37:13;11.10;99.90
24772;DHT22;12870;52.274;9.754;2022-09-01T04:39:40;11.10;99.90
24772;DHT22;12870;52.274;9.754;2022-09-01T04:42:13;11.10;99.90
24772;DHT22;12870;52.274;9.754;2022-09-01T04:44:39;11.10;99.90
24772;DHT22;12870;52.274;9.754;2022-09-01T04:47:04;11.10;99.90
24772;DHT22;12870;52.274;9.754;2022-09-01T04:49:35;11.10;99.90
24772;DHT22;12870;52.274;9.754;2022-09-01T04:52:03;11.20;99.90
24772;DHT22;12870;52.274;9.754;2022-09-01T04:54:29;11.20;99.90
24772;DHT22;12870;52.274;9.754;2022-09-01T04:56:55;11.20;99.90
24772;DHT22;12870;52.274;9.754;2022-09-01T04:59:23;11.30;99.90
24772;DHT22;12870;52.274;9.754;2022-09-01T05:01:52;11.20;99.90
24772;DHT22;12870;52.274;9.754;2022-09-01T05:04:24;11.20;99.90
24772;DHT22;12870;52.274;9.754;2022-09-01T05:06:56;11.30;99.90
24772;DHT22;12870;52.274;9.754;2022-09-01T05:09:27;11.30;99.90
24772;DHT22;12870;52.274;9.754;2022-09-01T05:11:54;11.30;99.90
24772;DHT22;12870;52.274;9.754;2022-09-01T05:14:22;11.30;99.90
24772;DHT22;12870;52.274;9.754;2022-09-01T05:16:49;11.40;99.90
24772;DHT22;12870;52.274;9.754;2022-09-01T05:19:16;11.50;99.90
24772;DHT22;12870;52.274;9.754;2022-09-01T05:21:46;11.50;99.90
24772;DHT22;12870;52.274;9.754;2022-09-01T05:24:15;11.60;99.90
24772;DHT22;12870;52.274;9.754;2022-09-01T05:26:42;11.60;99.90
24772;DHT22;12870;52.274;9.754;2022-09-01T05:29:09;11.60;99.90
24772;DHT22;12870;52.274;9.754;2022-09-01T05:31:43;11.70;99.90
24772;DHT22;12870;52.274;9.754;2022-09-01T05:34:10;11.70;99.90
24772;DHT22;12870;52.274;9.754;2022-09-01T05:36:40;11.80;99.90
24772;DHT22;12870;52.274;9.754;2022-09-01T05:39:06;11.80;99.90
24772;DHT22;12870;52.274;9.754;2022-09-01T05:41:37;11.90;99.90
24772;DHT22;12870;52.274;9.754;2022-09-01T05:44:04;11.90;99.90
24772;DHT22;12870;52.274;9.754;2022-09-01T05:46:33;12.00;99.90
24772;DHT22;12870;52.274;9.754;2022-09-01T05:49:00;12.10;99.90
24772;DHT22;12870;52.274;9.754;2022-09-01T05:51:28;12.20;99.90
24772;DHT22;12870;52.274;9.754;2022-09-01T05:53:56;12.20;99.90
24772;DHT22;12870;52.274;9.754;2022-09-01T05:56:29;12.30;99.90
24772;DHT22;12870;52.274;9.754;2022-09-01T05:58:55;12.30;99.90
24772;DHT22;12870;52.274;9.754;2022-09-01T06:01:26;12.40;99.90
24772;DHT22;12870;52.274;9.754;2022-09-01T06:03:59;12.50;99.90
24772;DHT22;12870;52.274;9.754;2022-09-01T06:06:35;12.60;99.90
24772;DHT22;12870;52.274;9.754;2022-09-01T06:09:04;12.70;99.90
24772;DHT22;12870;52.274;9.754;2022-09-01T06:11:31;12.80;99.90
24772;DHT22;12870;52.274;9.754;2022-09-01T06:13:59;12.90;99.90
24772;DHT22;12870;52.274;9.754;2022-09-01T06:16:26;13.00;99.90
24772;DHT22;12870;52.274;9.754;2022-09-01T06:18:54;13.10;99.90
24772;DHT22;12870;52.274;9.754;2022-09-01T06:21:22;13.30;99.90
24772;DHT22;12870;52.274;9.754;2022-09-01T06:23:50;13.40;99.90
24772;DHT22;12870;52.274;9.754;2022-09-01T06:26:31;13.50;99.90
24772;DHT22;12870;52.274;9.754;2022-09-01T06:28:59;13.60;99.90
24772;DHT22;12870;52.274;9.754;2022-09-01T06:31:29;13.70;99.90
24772;DHT22;12870;52.274;9.754;2022-09-01T06:34:00;13.80;99.90
24772;DHT22;12870;52.274;9.754;2022-09-01T06:36:26;13.90;99.90
24772;DHT22;12870;52.274;9.754;2022-09-01T06:38:53;14.00;99.90
24772;DHT22;12870;52.274;9.754;2022-09-01T06:41:21;14.10;99.90
24772;DHT22;12870;52.274;9.754;2022-09-01T06:43:49;14.20;99.90
24772;DHT22;12870;52.274;9.754;2022-09-01T06:46:17;14.30;99.90
24772;DHT22;12870;52.274;9.754;2022-09-01T06:48:44;14.50;99.90
24772;DHT22;12870;52.274;9.754;2022-09-01T06:51:15;14.60;99.90
24772;DHT22;12870;52.274;9.754;2022-09-01T06:53:45;14.70;99.90
24772;DHT22;12870;52.274;9.754;2022-09-01T06:56:14;14.80;99.90
24772;DHT22;12870;52.274;9.754;2022-09-01T06:58:42;14.90;99.90
24772;DHT22;12870;52.274;9.754;2022-09-01T07:01:16;15.00;99.90
24772;DHT22;12870;52.274;9.754;2022-09-01T07:03:46;15.10;99.90
24772;DHT22;12870;52.274;9.754;2022-09-01T07:06:13;15.20;99.90
24772;DHT22;12870;52.274;9.754;2022-09-01T07:08:40;15.30;99.90
24772;DHT22;12870;52.274;9.754;2022-09-01T07:11:19;15.40;99.90
24772;DHT22;12870;52.274;9.754;2022-09-01T07:13:55;15.40;99.90
24772;DHT22;12870;52.274;9.754;2022-09-01T07:16:23;15.50;99.90
24772;DHT22;12870;52.274;9.754;2022-09-01T07:18:53;15.60;99.90
24772;DHT22;12870;52.274;9.754;2022-09-01T07:21:22;15.70;99.90
24772;DHT22;12870;52.274;9.754;2022-09-01T07:23:48;15.80;99.90
24772;DHT22;12870;52.274;9.754;2022-09-01T07:26:14;15.90;99.90
24772;DHT22;12870;52.274;9.754;2022-09-01T07:28:48;16.00;99.90
24772;DHT22;12870;52.274;9.754;2022-09-01T07:31:26;16.10;99.90
24772;DHT22;12870;52.274;9.754;2022-09-01T07:33:53;16.20;99.90
24772;DHT22;12870;52.274;9.754;2022-09-01T07:36:20;16.20;99.90
24772;DHT22;12870;52.274;9.754;2022-09-01T07:38:46;16.30;99.90
24772;DHT22;12870;52.274;9.754;2022-09-01T07:41:19;16.40;99.90
24772;DHT22;12870;52.274;9.754;2022-09-01T07:43:47;16.40;99.90
24772;DHT22;12870;52.274;9.754;2022-09-01T07:46:15;16.50;99.90
24772;DHT22;12870;52.274;9.754;2022-09-01T07:48:41;16.60;99.90
24772;DHT22;12870;52.274;9.754;2022-09-01T07:51:10;16.70;99.90
24772;DHT22;12870;52.274;9.754;2022-09-01T07:53:36;16.70;99.90
24772;DHT22;12870;52.274;9.754;2022-09-01T07:56:08;16.80;99.90
24772;DHT22;12870;52.274;9.754;2022-09-01T07:58:36;16.90;99.90
24772;DHT22;12870;52.274;9.754;2022-09-01T08:01:09;17.00;99.90
24772;DHT22;12870;52.274;9.754;2022-09-01T08:03:36;17.10;99.90
24772;DHT22;12870;52.274;9.754;2022-09-01T08:06:07;17.20;99.90
24772;DHT22;12870;52.274;9.754;2022-09-01T08:08:35;17.30;99.90
24772;DHT22;12870;52.274;9.754;2022-09-01T08:11:01;17.40;99.90
24772;DHT22;12870;52.274;9.754;2022-09-01T08:13:27;17.50;99.90
24772;DHT22;12870;52.274;9.754;2022-09-01T08:15:53;17.60;99.90
24772;DHT22;12870;52.274;9.754;2022-09-01T08:18:19;17.70;99.90
24772;DHT22;12870;52.274;9.754;2022-09-01T08:20:45;17.80;99.90
24772;DHT22;12870;52.274;9.754;2022-09-01T08:23:17;18.00;99.90
24772;DHT22;12870;52.274;9.754;2022-09-01T08:25:44;18.10;99.90
24772;DHT22;12870;52.274;9.754;2022-09-01T08:28:12;18.20;99.90
24772;DHT22;12870;52.274;9.754;2022-09-01T08:30:40;18.30;99.90
24772;DHT22;12870;52.274;9.754;2022-09-01T08:33:05;18.40;99.90
24772;DHT22;12870;52.274;9.754;2022-09-01T08:35:31;18.40;99.90
24772;DHT22;12870;52.274;9.754;2022-09-01T08:37:57;18.40;99.90
24772;DHT22;12870;52.274;9.754;2022-09-01T08:40:24;18.50;99.90
24772;DHT22;12870;52.274;9.754;2022-09-01T08:49:15;18.80;99.90
24772;DHT22;12870;52.274;9.754;2022-09-01T08:51:36;19.00;99.90
24772;DHT22;12870;52.274;9.754;2022-09-01T08:56:35;19.50;99.90
24772;DHT22;12870;52.274;9.754;2022-09-01T08:59:03;19.80;99.90
24772;DHT22;12870;52.274;9.754;2022-09-01T09:04:37;20.50;99.90
24772;DHT22;12870;52.274;9.754;2022-09-01T09:10:02;21.20;99.90
24772;DHT22;12870;52.274;9.754;2022-09-01T09:15:42;22.20;99.90
24772;DHT22;12870;52.274;9.754;2022-09-01T09:18:32;22.70;99.90
24772;DHT22;12870;52.274;9.754;2022-09-01T09:21:19;22.80;99.90
24772;DHT22;12870;52.274;9.754;2022-09-01T09:23:52;23.00;99.90
24772;DHT22;12870;52.274;9.754;2022-09-01T09:26:19;23.20;99.90
24772;DHT22;12870;52.274;9.754;2022-09-01T09:28:46;23.50;99.90
24772;DHT22;12870;52.274;9.754;2022-09-01T09:31:33;23.60;99.90
24772;DHT22;12870;52.274;9.754;2022-09-01T09:34:00;23.70;99.90
24772;DHT22;12870;52.274;9.754;2022-09-01T09:36:35;23.50;99.90
24772;DHT22;12870;52.274;9.754;2022-09-01T09:39:13;23.60;99.90
24772;DHT22;12870;52.274;9.754;2022-09-01T09:41:41;23.60;99.90
24772;DHT22;12870;52.274;9.754;2022-09-01T09:44:42;23.50;99.90
24772;DHT22;12870;52.274;9.754;2022-09-01T09:47:10;23.60;99.90
24772;DHT22;12870;52.274;9.754;2022-09-01T09:52:39;23.10;99.90
24772;DHT22;12870;52.274;9.754;2022-09-01T09:57:43;22.90;99.90
24772;DHT22;12870;52.274;9.754;2022-09-01T10:00:26;23.00;99.90
24772;DHT22;12870;52.274;9.754;2022-09-01T10:03:08;23.00;99.90
24772;DHT22;12870;52.274;9.754;2022-09-01T10:05:41;22.90;99.90
24772;DHT22;12870;52.274;9.754;2022-09-01T10:08:39;22.70;99.90
24772;DHT22;12870;52.274;9.754;2022-09-01T10:11:11;22.70;99.90
24772;DHT22;12870;52.274;9.754;2022-09-01T10:13:51;22.80;99.90
24772;DHT22;12870;52.274;9.754;2022-09-01T10:16:23;23.10;99.90
24772;DHT22;12870;52.274;9.754;2022-09-01T10:18:50;23.60;99.90
24772;DHT22;12870;52.274;9.754;2022-09-01T10:21:37;24.00;99.20
24772;DHT22;12870;52.274;9.754;2022-09-01T10:24:16;24.60;98.50
24772;DHT22;12870;52.274;9.754;2022-09-01T10:26:45;24.90;96.70
24772;DHT22;12870;52.274;9.754;2022-09-01T10:29:17;25.40;95.90
24772;DHT22;12870;52.274;9.754;2022-09-01T10:31:45;25.60;94.20
24772;DHT22;12870;52.274;9.754;2022-09-01T10:34:14;25.80;94.40
24772;DHT22;12870;52.274;9.754;2022-09-01T10:36:43;26.30;92.50
24772;DHT22;12870;52.274;9.754;2022-09-01T10:39:14;26.40;90.30
24772;DHT22;12870;52.274;9.754;2022-09-01T10:44:21;27.00;88.00
24772;DHT22;12870;52.274;9.754;2022-09-01T10:46:48;26.90;85.20
24772;DHT22;12870;52.274;9.754;2022-09-01T10:52:09;27.70;87.90
24772;DHT22;12870;52.274;9.754;2022-09-01T11:13:49;29.50;69.10
24772;DHT22;12870;52.274;9.754;2022-09-01T11:16:39;29.80;63.20
24772;DHT22;12870;52.274;9.754;2022-09-01T11:27:08;28.70;64.30
24772;DHT22;12870;52.274;9.754;2022-09-01T11:29:57;29.60;62.30
24772;DHT22;12870;52.274;9.754;2022-09-01T11:32:36;30.50;63.20
24772;DHT22;12870;52.274;9.754;2022-09-01T11:35:05;30.70;59.70
24772;DHT22;12870;52.274;9.754;2022-09-01T11:37:39;30.80;57.50
24772;DHT22;12870;52.274;9.754;2022-09-01T11:40:05;31.50;56.30
24772;DHT22;12870;52.274;9.754;2022-09-01T11:42:40;31.70;56.00
24772;DHT22;12870;52.274;9.754;2022-09-01T11:45:28;32.20;55.40
24772;DHT22;12870;52.274;9.754;2022-09-01T11:48:01;33.10;52.20
24772;DHT22;12870;52.274;9.754;2022-09-01T11:50:28;32.40;50.50
24772;DHT22;12870;52.274;9.754;2022-09-01T11:52:59;31.80;51.20
24772;DHT22;12870;52.274;9.754;2022-09-01T11:55:34;32.10;53.60
24772;DHT22;12870;52.274;9.754;2022-09-01T11:58:01;32.60;52.80
24772;DHT22;12870;52.274;9.754;2022-09-01T12:00:33;32.50;49.40
24772;DHT22;12870;52.274;9.754;2022-09-01T12:05:45;31.30;47.20
24772;DHT22;12870;52.274;9.754;2022-09-01T12:08:18;30.70;50.80
24772;DHT22;12870;52.274;9.754;2022-09-01T12:10:44;31.00;50.20
24772;DHT22;12870;52.274;9.754;2022-09-01T12:13:19;31.40;52.20
24772;DHT22;12870;52.274;9.754;2022-09-01T12:15:53;31.80;50.30
24772;DHT22;12870;52.274;9.754;2022-09-01T12:18:25;32.40;50.50
24772;DHT22;12870;52.274;9.754;2022-09-01T12:20:53;32.10;48.00
24772;DHT22;12870;52.274;9.754;2022-09-01T12:23:31;32.50;48.20
24772;DHT22;12870;52.274;9.754;2022-09-01T12:26:13;32.20;46.30
24772;DHT22;12870;52.274;9.754;2022-09-01T12:28:41;30.90;46.60
24772;DHT22;12870;52.274;9.754;2022-09-01T12:31:12;30.50;48.70
24772;DHT22;12870;52.274;9.754;2022-09-01T12:33:41;31.00;49.40
24772;DHT22;12870;52.274;9.754;2022-09-01T12:38:49;32.70;47.40
24772;DHT22;12870;52.274;9.754;2022-09-01T12:41:23;32.90;46.70
24772;DHT22;12870;52.274;9.754;2022-09-01T12:43:49;33.20;45.50
24772;DHT22;12870;52.274;9.754;2022-09-01T12:46:41;32.40;44.10
24772;DHT22;12870;52.274;9.754;2022-09-01T12:49:18;31.90;46.40
24772;DHT22;12870;52.274;9.754;2022-09-01T12:51:45;32.50;47.30
24772;DHT22;12870;52.274;9.754;2022-09-01T12:54:13;33.10;46.40
24772;DHT22;12870;52.274;9.754;2022-09-01T12:56:39;33.20;45.70
24772;DHT22;12870;52.274;9.754;2022-09-01T12:59:12;32.40;45.30
24772;DHT22;12870;52.274;9.754;2022-09-01T13:01:40;32.50;44.50
24772;DHT22;12870;52.274;9.754;2022-09-01T13:04:22;32.50;46.60
24772;DHT22;12870;52.274;9.754;2022-09-01T13:06:54;33.10;46.50
24772;DHT22;12870;52.274;9.754;2022-09-01T13:09:20;33.50;45.70
24772;DHT22;12870;52.274;9.754;2022-09-01T13:11:47;33.30;45.30
24772;DHT22;12870;52.274;9.754;2022-09-01T13:14:15;33.50;44.30
24772;DHT22;12870;52.274;9.754;2022-09-01T13:16:41;33.10;43.30
24772;DHT22;12870;52.274;9.754;2022-09-01T13:19:07;31.80;44.60
24772;DHT22;12870;52.274;9.754;2022-09-01T13:21:34;31.00;45.20
24772;DHT22;12870;52.274;9.754;2022-09-01T13:24:02;31.40;45.90
24772;DHT22;12870;52.274;9.754;2022-09-01T13:26:29;32.00;46.00
24772;DHT22;12870;52.274;9.754;2022-09-01T13:28:56;32.90;45.20
24772;DHT22;12870;52.274;9.754;2022-09-01T13:31:22;33.70;44.60
24772;DHT22;12870;52.274;9.754;2022-09-01T13:33:48;33.40;43.40
24772;DHT22;12870;52.274;9.754;2022-09-01T13:36:14;32.70;43.20
24772;DHT22;12870;52.274;9.754;2022-09-01T13:38:40;33.00;43.80
24772;DHT22;12870;52.274;9.754;2022-09-01T13:41:05;33.10;42.50
24772;DHT22;12870;52.274;9.754;2022-09-01T13:43:33;32.70;43.20
24772;DHT22;12870;52.274;9.754;2022-09-01T13:45:59;32.90;43.60
24772;DHT22;12870;52.274;9.754;2022-09-01T13:48:25;33.50;43.10
24772;DHT22;12870;52.274;9.754;2022-09-01T13:50:52;34.20;42.40
24772;DHT22;12870;52.274;9.754;2022-09-01T13:53:19;34.30;43.50
24772;DHT22;12870;52.274;9.754;2022-09-01T13:55:45;34.30;42.30
24772;DHT22;12870;52.274;9.754;2022-09-01T13:58:11;34.50;43.10
24772;DHT22;12870;52.274;9.754;2022-09-01T14:00:40;34.80;43.00
24772;DHT22;12870;52.274;9.754;2022-09-01T14:03:13;35.10;41.80
24772;DHT22;12870;52.274;9.754;2022-09-01T14:05:41;35.20;41.50
24772;DHT22;12870;52.274;9.754;2022-09-01T14:08:08;34.90;42.80
24772;DHT22;12870;52.274;9.754;2022-09-01T14:10:41;35.00;41.80
24772;DHT22;12870;52.274;9.754;2022-09-01T14:13:09;34.90;42.40
24772;DHT22;12870;52.274;9.754;2022-09-01T14:15:35;34.50;41.60
24772;DHT22;12870;52.274;9.754;2022-09-01T14:18:01;34.50;42.70
24772;DHT22;12870;52.274;9.754;2022-09-01T14:20:30;34.70;41.10
24772;DHT22;12870;52.274;9.754;2022-09-01T14:22:57;34.80;41.60
24772;DHT22;12870;52.274;9.754;2022-09-01T14:25:23;34.80;41.00
24772;DHT22;12870;52.274;9.754;2022-09-01T14:27:49;35.00;41.40
24772;DHT22;12870;52.274;9.754;2022-09-01T14:30:26;34.20;41.00
24772;DHT22;12870;52.274;9.754;2022-09-01T14:32:52;33.60;42.10
24772;DHT22;12870;52.274;9.754;2022-09-01T14:35:21;33.40;42.30
24772;DHT22;12870;52.274;9.754;2022-09-01T14:37:49;33.30;41.60
24772;DHT22;12870;52.274;9.754;2022-09-01T14:40:16;32.80;41.70
24772;DHT22;12870;52.274;9.754;2022-09-01T14:42:42;32.50;42.50
24772;DHT22;12870;52.274;9.754;2022-09-01T14:45:09;32.10;42.20
24772;DHT22;12870;52.274;9.754;2022-09-01T14:47:40;31.80;42.80
24772;DHT22;12870;52.274;9.754;2022-09-01T14:50:06;32.00;43.00
24772;DHT22;12870;52.274;9.754;2022-09-01T14:52:32;31.70;42.50
24772;DHT22;12870;52.274;9.754;2022-09-01T14:54:58;30.70;42.70
24772;DHT22;12870;52.274;9.754;2022-09-01T14:57:24;29.90;43.10
24772;DHT22;12870;52.274;9.754;2022-09-01T14:59:50;29.10;44.00
24772;DHT22;12870;52.274;9.754;2022-09-01T15:02:15;28.60;44.60
24772;DHT22;12870;52.274;9.754;2022-09-01T15:04:41;28.30;44.90
24772;DHT22;12870;52.274;9.754;2022-09-01T15:07:07;28.30;45.80
24772;DHT22;12870;52.274;9.754;2022-09-01T15:09:34;28.80;45.40
24772;DHT22;12870;52.274;9.754;2022-09-01T15:12:00;29.10;45.60
24772;DHT22;12870;52.274;9.754;2022-09-01T15:14:26;29.40;44.70
24772;DHT22;12870;52.274;9.754;2022-09-01T15:16:52;30.10;44.90
24772;DHT22;12870;52.274;9.754;2022-09-01T15:19:18;30.80;44.60
24772;DHT22;12870;52.274;9.754;2022-09-01T15:21:45;31.20;44.10
24772;DHT22;12870;52.274;9.754;2022-09-01T15:24:12;31.30;43.20
24772;DHT22;12870;52.274;9.754;2022-09-01T15:26:38;30.70;43.20
24772;DHT22;12870;52.274;9.754;2022-09-01T15:29:12;29.70;43.30
24772;DHT22;12870;52.274;9.754;2022-09-01T15:31:40;29.10;44.50
24772;DHT22;12870;52.274;9.754;2022-09-01T15:34:07;28.50;44.80
24772;DHT22;12870;52.274;9.754;2022-09-01T15:36:35;28.50;44.90
24772;DHT22;12870;52.274;9.754;2022-09-01T15:39:02;28.90;44.70
24772;DHT22;12870;52.274;9.754;2022-09-01T15:41:29;29.20;45.50
24772;DHT22;12870;52.274;9.754;2022-09-01T15:43:56;29.40;45.20
24772;DHT22;12870;52.274;9.754;2022-09-01T15:46:22;29.70;44.40
24772;DHT22;12870;52.274;9.754;2022-09-01T15:49:00;29.90;44.40
24772;DHT22;12870;52.274;9.754;2022-09-01T15:54:02;29.80;44.40
24772;DHT22;12870;52.274;9.754;2022-09-01T15:56:28;29.90;44.80
24772;DHT22;12870;52.274;9.754;2022-09-01T15:58:56;29.70;44.70
24772;DHT22;12870;52.274;9.754;2022-09-01T16:01:24;29.60;43.80
24772;DHT22;12870;52.274;9.754;2022-09-01T16:03:49;29.30;43.80
24772;DHT22;12870;52.274;9.754;2022-09-01T16:06:15;29.40;44.30
24772;DHT22;12870;52.274;9.754;2022-09-01T16:08:41;29.30;44.50
24772;DHT22;12870;52.274;9.754;2022-09-01T16:11:08;29.30;44.30
24772;DHT22;12870;52.274;9.754;2022-09-01T16:13:36;29.20;43.80
24772;DHT22;12870;52.274;9.754;2022-09-01T16:16:26;28.70;43.60
24772;DHT22;12870;52.274;9.754;2022-09-01T16:24:25;26.90;45.30
24772;DHT22;12870;52.274;9.754;2022-09-01T16:26:51;26.50;46.00
24772;DHT22;12870;52.274;9.754;2022-09-01T16:29:24;26.10;46.50
24772;DHT22;12870;52.274;9.754;2022-09-01T16:31:54;25.90;46.70
24772;DHT22;12870;52.274;9.754;2022-09-01T16:34:20;25.60;47.30
24772;DHT22;12870;52.274;9.754;2022-09-01T16:37:15;25.60;47.60
24772;DHT22;12870;52.274;9.754;2022-09-01T16:42:19;25.90;48.40
24772;DHT22;12870;52.274;9.754;2022-09-01T16:50:43;26.00;47.80
24772;DHT22;12870;52.274;9.754;2022-09-01T16:53:27;25.90;47.70
24772;DHT22;12870;52.274;9.754;2022-09-01T16:58:41;25.60;47.80
24772;DHT22;12870;52.274;9.754;2022-09-01T17:04:41;25.10;48.20
24772;DHT22;12870;52.274;9.754;2022-09-01T17:13:13;24.50;48.60
24772;DHT22;12870;52.274;9.754;2022-09-01T17:15:42;24.30;48.90
24772;DHT22;12870;52.274;9.754;2022-09-01T17:18:20;24.10;49.20
24772;DHT22;12870;52.274;9.754;2022-09-01T17:20:51;24.00;49.50